sensor_id;sensor_type;location;lat;lon;timestamp;P1;durP1;ratioP1;P2;durP2;ratioP2
9643;SDS011;4860;50.900;4.720;2023-05-14T00:02:03;0.10;;;0.10;;
9643;SDS011;4860;50.900;4.720;2023-05-14T00:04:29;0.10;;;0.10;;
9643;SDS011;4860;50.900;4.720;2023-05-14T00:06:55;0.10;;;0.10;;
9643;SDS011;4860;50.900;4.720;2023-05-14T00:09:21;0.10;;;0.10;;
9643;SDS011;4860;50.900;4.720;2023-05-14T00:11:47;0.10;;;0.10;;
9643;SDS011;4860;50.900;4.720;2023-05-14T00:14:13;0.13;;;0.13;;
9643;SDS011;4860;50.900;4.720;2023-05-14T00:16:39;0.10;;;0.10;;
9643;SDS011;4860;50.900;4.720;2023-05-14T00:19:05;0.10;;;0.10;;
9643;SDS011;4860;50.900;4.720;2023-05-14T00:21:32;0.10;;;0.10;;
9643;SDS011;4860;50.900;4.720;2023-05-14T00:23:58;0.10;;;0.10;;
9643;SDS011;4860;50.900;4.720;2023-05-14T00:26:24;0.10;;;0.10;;
9643;SDS011;4860;50.900;4.720;2023-05-14T00:28:50;0.10;;;0.10;;
9643;SDS011;4860;50.900;4.720;2023-05-14T00:31:17;0.10;;;0.10;;
9643;SDS011;4860;50.900;4.720;2023-05-14T00:33:43;0.10;;;0.10;;
9643;SDS011;4860;50.900;4.720;2023-05-14T00:36:09;0.08;;;0.08;;
9643;SDS011;4860;50.900;4.720;2023-05-14T00:38:35;0.10;;;0.10;;
9643;SDS011;4860;50.900;4.720;2023-05-14T00:41:01;0.10;;;0.10;;
9643;SDS011;4860;50.900;4.720;2023-05-14T00:43:28;0.10;;;0.10;;
9643;SDS011;4860;50.900;4.720;2023-05-14T00:45:54;0.10;;;0.10;;
9643;SDS011;4860;50.900;4.720;2023-05-14T00:48:21;0.10;;;0.10;;
9643;SDS011;4860;50.900;4.720;2023-05-14T00:50:48;0.20;;;0.20;;
9643;SDS011;4860;50.900;4.720;2023-05-14T00:53:14;0.10;;;0.10;;
9643;SDS011;4860;50.900;4.720;2023-05-14T00:55:41;0.13;;;0.13;;
9643;SDS011;4860;50.900;4.720;2023-05-14T00:58:12;0.10;;;0.10;;
9643;SDS011;4860;50.900;4.720;2023-05-14T01:00:38;0.20;;;0.20;;
9643;SDS011;4860;50.900;4.720;2023-05-14T01:03:05;0.00;;;0.00;;
9643;SDS011;4860;50.900;4.720;2023-05-14T01:08:24;0.10;;;0.10;;
9643;SDS011;4860;50.900;4.720;2023-05-14T01:13:32;0.20;;;0.20;;
9643;SDS011;4860;50.900;4.720;2023-05-14T01:16:02;0.10;;;0.10;;
9643;SDS011;4860;50.900;4.720;2023-05-14T01:18:29;0.10;;;0.10;;
9643;SDS011;4860;50.900;4.720;2023-05-14T01:20:56;0.20;;;0.20;;
9643;SDS011;4860;50.900;4.720;2023-05-14T01:23:22;0.20;;;0.20;;
9643;SDS011;4860;50.900;4.720;2023-05-14T01:25:48;0.10;;;0.10;;
9643;SDS011;4860;50.900;4.720;2023-05-14T01:30:57;0.10;;;0.10;;
9643;SDS011;4860;50.900;4.720;2023-05-14T01:33:26;0.10;;;0.10;;
9643;SDS011;4860;50.900;4.720;2023-05-14T01:35:54;0.10;;;0.10;;
9643;SDS011;4860;50.900;4.720;2023-05-14T01:38:20;0.20;;;0.20;;
9643;SDS011;4860;50.900;4.720;2023-05-14T01:40:47;0.10;;;0.10;;
9643;SDS011;4860;50.900;4.720;2023-05-14T01:43:15;0.10;;;0.10;;
9643;SDS011;4860;50.900;4.720;2023-05-14T01:45:42;0.17;;;0.17;;
9643;SDS011;4860;50.900;4.720;2023-05-14T01:48:08;0.15;;;0.15;;
9643;SDS011;4860;50.900;4.720;2023-05-14T01:50:37;0.20;;;0.20;;
9643;SDS011;4860;50.900;4.720;2023-05-14T01:53:03;0.10;;;0.10;;
9643;SDS011;4860;50.900;4.720;2023-05-14T01:55:29;0.10;;;0.10;;
9643;SDS011;4860;50.900;4.720;2023-05-14T01:57:55;0.20;;;0.20;;
9643;SDS011;4860;50.900;4.720;2023-05-14T02:00:22;0.13;;;0.13;;
9643;SDS011;4860;50.900;4.720;2023-05-14T02:02:49;0.10;;;0.10;;
9643;SDS011;4860;50.900;4.720;2023-05-14T02:05:16;0.10;;;0.10;;
9643;SDS011;4860;50.900;4.720;2023-05-14T02:07:42;0.10;;;0.10;;
9643;SDS011;4860;50.900;4.720;2023-05-14T02:10:08;0.10;;;0.10;;
9643;SDS011;4860;50.900;4.720;2023-05-14T02:12:34;0.10;;;0.10;;
9643;SDS011;4860;50.900;4.720;2023-05-14T02:15:01;0.10;;;0.10;;
9643;SDS011;4860;50.900;4.720;2023-05-14T02:17:27;0.10;;;0.10;;
9643;SDS011;4860;50.900;4.720;2023-05-14T02:19:54;0.20;;;0.20;;
9643;SDS011;4860;50.900;4.720;2023-05-14T02:22:20;0.10;;;0.10;;
9643;SDS011;4860;50.900;4.720;2023-05-14T02:24:46;0.10;;;0.10;;
9643;SDS011;4860;50.900;4.720;2023-05-14T02:27:13;0.10;;;0.10;;
9643;SDS011;4860;50.900;4.720;2023-05-14T02:29:40;0.10;;;0.10;;
9643;SDS011;4860;50.900;4.720;2023-05-14T02:32:06;0.10;;;0.10;;
9643;SDS011;4860;50.900;4.720;2023-05-14T02:34:32;0.10;;;0.10;;
9643;SDS011;4860;50.900;4.720;2023-05-14T02:36:59;0.10;;;0.10;;
9643;SDS011;4860;50.900;4.720;2023-05-14T02:39:25;0.10;;;0.10;;
9643;SDS011;4860;50.900;4.720;2023-05-14T02:41:51;0.10;;;0.10;;
9643;SDS011;4860;50.900;4.720;2023-05-14T02:44:17;0.10;;;0.10;;
9643;SDS011;4860;50.900;4.720;2023-05-14T02:46:43;0.10;;;0.10;;
9643;SDS011;4860;50.900;4.720;2023-05-14T02:49:09;0.10;;;0.10;;
9643;SDS011;4860;50.900;4.720;2023-05-14T02:51:35;0.10;;;0.10;;
9643;SDS011;4860;50.900;4.720;2023-05-14T02:54:01;0.10;;;0.10;;
9643;SDS011;4860;50.900;4.720;2023-05-14T02:56:28;0.10;;;0.10;;
9643;SDS011;4860;50.900;4.720;2023-05-14T02:58:54;0.10;;;0.10;;
9643;SDS011;4860;50.900;4.720;2023-05-14T03:01:20;0.10;;;0.10;;
9643;SDS011;4860;50.900;4.720;2023-05-14T03:03:46;0.10;;;0.10;;
9643;SDS011;4860;50.900;4.720;2023-05-14T03:06:12;0.10;;;0.10;;
9643;SDS011;4860;50.900;4.720;2023-05-14T03:08:38;0.20;;;0.20;;
9643;SDS011;4860;50.900;4.720;2023-05-14T03:11:05;0.10;;;0.10;;
9643;SDS011;4860;50.900;4.720;2023-05-14T03:13:31;0.10;;;0.10;;
9643;SDS011;4860;50.900;4.720;2023-05-14T03:15:58;0.10;;;0.10;;
9643;SDS011;4860;50.900;4.720;2023-05-14T03:18:24;0.10;;;0.10;;
9643;SDS011;4860;50.900;4.720;2023-05-14T03:20:52;0.20;;;0.20;;
9643;SDS011;4860;50.900;4.720;2023-05-14T03:23:18;0.10;;;0.10;;
9643;SDS011;4860;50.900;4.720;2023-05-14T03:25:44;0.10;;;0.10;;
9643;SDS011;4860;50.900;4.720;2023-05-14T03:28:10;0.10;;;0.10;;
9643;SDS011;4860;50.900;4.720;2023-05-14T03:30:36;0.13;;;0.13;;
9643;SDS011;4860;50.900;4.720;2023-05-14T03:33:02;0.10;;;0.10;;
9643;SDS011;4860;50.900;4.720;2023-05-14T03:35:29;0.10;;;0.10;;
9643;SDS011;4860;50.900;4.720;2023-05-14T03:37:55;0.10;;;0.10;;
9643;SDS011;4860;50.900;4.720;2023-05-14T03:40:23;0.10;;;0.10;;
9643;SDS011;4860;50.900;4.720;2023-05-14T03:42:49;0.10;;;0.10;;
9643;SDS011;4860;50.900;4.720;2023-05-14T03:45:15;0.10;;;0.10;;
9643;SDS011;4860;50.900;4.720;2023-05-14T03:47:41;0.10;;;0.10;;
9643;SDS011;4860;50.900;4.720;2023-05-14T03:50:08;0.10;;;0.10;;
9643;SDS011;4860;50.900;4.720;2023-05-14T03:52:34;0.10;;;0.10;;
9643;SDS011;4860;50.900;4.720;2023-05-14T03:55:00;0.20;;;0.20;;
9643;SDS011;4860;50.900;4.720;2023-05-14T03:57:26;0.10;;;0.10;;
9643;SDS011;4860;50.900;4.720;2023-05-14T03:59:52;0.20;;;0.20;;
9643;SDS011;4860;50.900;4.720;2023-05-14T04:02:18;0.10;;;0.10;;
9643;SDS011;4860;50.900;4.720;2023-05-14T04:04:44;0.10;;;0.10;;
9643;SDS011;4860;50.900;4.720;2023-05-14T04:07:11;0.10;;;0.10;;
9643;SDS011;4860;50.900;4.720;2023-05-14T04:09:37;0.10;;;0.10;;
9643;SDS011;4860;50.900;4.720;2023-05-14T04:12:03;0.10;;;0.10;;
9643;SDS011;4860;50.900;4.720;2023-05-14T04:14:29;0.10;;;0.10;;
9643;SDS011;4860;50.900;4.720;2023-05-14T04:16:55;0.17;;;0.17;;
9643;SDS011;4860;50.900;4.720;2023-05-14T04:19:21;0.10;;;0.10;;
9643;SDS011;4860;50.900;4.720;2023-05-14T04:21:48;0.10;;;0.10;;
9643;SDS011;4860;50.900;4.720;2023-05-14T04:24:14;0.10;;;0.10;;
9643;SDS011;4860;50.900;4.720;2023-05-14T04:26:40;0.20;;;0.20;;
9643;SDS011;4860;50.900;4.720;2023-05-14T04:29:06;0.10;;;0.10;;
9643;SDS011;4860;50.900;4.720;2023-05-14T04:31:32;0.20;;;0.20;;
9643;SDS011;4860;50.900;4.720;2023-05-14T04:33:58;0.20;;;0.20;;
9643;SDS011;4860;50.900;4.720;2023-05-14T04:36:25;0.10;;;0.10;;
9643;SDS011;4860;50.900;4.720;2023-05-14T04:38:51;0.00;;;0.00;;
9643;SDS011;4860;50.900;4.720;2023-05-14T04:41:17;0.10;;;0.10;;
9643;SDS011;4860;50.900;4.720;2023-05-14T04:43:43;0.10;;;0.10;;
9643;SDS011;4860;50.900;4.720;2023-05-14T04:46:10;0.10;;;0.10;;
9643;SDS011;4860;50.900;4.720;2023-05-14T04:48:36;0.10;;;0.10;;
9643;SDS011;4860;50.900;4.720;2023-05-14T04:51:02;0.10;;;0.10;;
9643;SDS011;4860;50.900;4.720;2023-05-14T04:53:28;0.10;;;0.10;;
9643;SDS011;4860;50.900;4.720;2023-05-14T04:55:54;0.20;;;0.20;;
9643;SDS011;4860;50.900;4.720;2023-05-14T04:58:20;0.10;;;0.10;;
9643;SDS011;4860;50.900;4.720;2023-05-14T05:00:48;0.10;;;0.10;;
9643;SDS011;4860;50.900;4.720;2023-05-14T05:03:14;0.10;;;0.10;;
9643;SDS011;4860;50.900;4.720;2023-05-14T05:05:40;0.10;;;0.10;;
9643;SDS011;4860;50.900;4.720;2023-05-14T05:08:06;0.10;;;0.10;;
9643;SDS011;4860;50.900;4.720;2023-05-14T05:10:33;0.20;;;0.20;;
9643;SDS011;4860;50.900;4.720;2023-05-14T05:12:59;0.10;;;0.10;;
9643;SDS011;4860;50.900;4.720;2023-05-14T05:15:25;0.10;;;0.10;;
9643;SDS011;4860;50.900;4.720;2023-05-14T05:17:51;0.10;;;0.10;;
9643;SDS011;4860;50.900;4.720;2023-05-14T05:20:17;0.20;;;0.20;;
9643;SDS011;4860;50.900;4.720;2023-05-14T05:22:43;0.10;;;0.10;;
9643;SDS011;4860;50.900;4.720;2023-05-14T05:25:09;0.10;;;0.10;;
9643;SDS011;4860;50.900;4.720;2023-05-14T05:27:37;0.10;;;0.10;;
9643;SDS011;4860;50.900;4.720;2023-05-14T05:30:03;0.10;;;0.10;;
9643;SDS011;4860;50.900;4.720;2023-05-14T05:32:30;0.10;;;0.10;;
9643;SDS011;4860;50.900;4.720;2023-05-14T05:34:56;0.10;;;0.10;;
9643;SDS011;4860;50.900;4.720;2023-05-14T05:37:22;0.10;;;0.10;;
9643;SDS011;4860;50.900;4.720;2023-05-14T05:39:48;0.10;;;0.10;;
9643;SDS011;4860;50.900;4.720;2023-05-14T05:42:15;0.10;;;0.10;;
9643;SDS011;4860;50.900;4.720;2023-05-14T05:44:41;0.10;;;0.10;;
9643;SDS011;4860;50.900;4.720;2023-05-14T05:47:07;0.10;;;0.10;;
9643;SDS011;4860;50.900;4.720;2023-05-14T05:49:33;0.10;;;0.10;;
9643;SDS011;4860;50.900;4.720;2023-05-14T05:52:01;0.10;;;0.10;;
9643;SDS011;4860;50.900;4.720;2023-05-14T05:54:27;0.10;;;0.10;;
9643;SDS011;4860;50.900;4.720;2023-05-14T05:56:53;0.10;;;0.10;;
9643;SDS011;4860;50.900;4.720;2023-05-14T05:59:19;0.10;;;0.10;;
9643;SDS011;4860;50.900;4.720;2023-05-14T06:01:45;0.10;;;0.10;;
9643;SDS011;4860;50.900;4.720;2023-05-14T06:04:12;0.10;;;0.10;;
9643;SDS011;4860;50.900;4.720;2023-05-14T06:06:38;0.10;;;0.10;;
9643;SDS011;4860;50.900;4.720;2023-05-14T06:09:04;0.10;;;0.10;;
9643;SDS011;4860;50.900;4.720;2023-05-14T06:11:31;0.10;;;0.10;;
9643;SDS011;4860;50.900;4.720;2023-05-14T06:13:57;0.10;;;0.10;;
9643;SDS011;4860;50.900;4.720;2023-05-14T06:16:23;0.10;;;0.10;;
9643;SDS011;4860;50.900;4.720;2023-05-14T06:18:49;0.13;;;0.13;;
9643;SDS011;4860;50.900;4.720;2023-05-14T06:21:16;0.10;;;0.10;;
9643;SDS011;4860;50.900;4.720;2023-05-14T06:23:43;0.10;;;0.10;;
9643;SDS011;4860;50.900;4.720;2023-05-14T06:26:09;0.10;;;0.10;;
9643;SDS011;4860;50.900;4.720;2023-05-14T06:28:35;0.03;;;0.03;;
9643;SDS011;4860;50.900;4.720;2023-05-14T06:31:02;0.10;;;0.10;;
9643;SDS011;4860;50.900;4.720;2023-05-14T06:33:28;0.10;;;0.10;;
9643;SDS011;4860;50.900;4.720;2023-05-14T06:36:03;0.10;;;0.10;;
9643;SDS011;4860;50.900;4.720;2023-05-14T06:38:29;0.10;;;0.10;;
9643;SDS011;4860;50.900;4.720;2023-05-14T06:40:55;0.10;;;0.10;;
9643;SDS011;4860;50.900;4.720;2023-05-14T06:43:22;0.10;;;0.10;;
9643;SDS011;4860;50.900;4.720;2023-05-14T06:45:48;0.10;;;0.10;;
9643;SDS011;4860;50.900;4.720;2023-05-14T06:48:15;0.10;;;0.10;;
9643;SDS011;4860;50.900;4.720;2023-05-14T06:50:43;0.10;;;0.10;;
9643;SDS011;4860;50.900;4.720;2023-05-14T06:53:09;0.10;;;0.10;;
9643;SDS011;4860;50.900;4.720;2023-05-14T06:55:35;0.10;;;0.10;;
9643;SDS011;4860;50.900;4.720;2023-05-14T06:58:01;0.10;;;0.10;;
9643;SDS011;4860;50.900;4.720;2023-05-14T07:00:28;0.10;;;0.10;;
9643;SDS011;4860;50.900;4.720;2023-05-14T07:02:55;0.10;;;0.10;;
9643;SDS011;4860;50.900;4.720;2023-05-14T07:05:21;0.10;;;0.10;;
9643;SDS011;4860;50.900;4.720;2023-05-14T07:07:47;0.05;;;0.05;;
9643;SDS011;4860;50.900;4.720;2023-05-14T07:10:13;0.10;;;0.10;;
9643;SDS011;4860;50.900;4.720;2023-05-14T07:12:39;0.10;;;0.10;;
9643;SDS011;4860;50.900;4.720;2023-05-14T07:15:06;0.10;;;0.10;;
9643;SDS011;4860;50.900;4.720;2023-05-14T07:17:32;0.10;;;0.10;;
9643;SDS011;4860;50.900;4.720;2023-05-14T07:19:58;0.10;;;0.10;;
9643;SDS011;4860;50.900;4.720;2023-05-14T07:22:24;0.10;;;0.10;;
9643;SDS011;4860;50.900;4.720;2023-05-14T07:24:50;0.10;;;0.10;;
9643;SDS011;4860;50.900;4.720;2023-05-14T07:27:16;0.10;;;0.10;;
9643;SDS011;4860;50.900;4.720;2023-05-14T07:29:42;0.10;;;0.10;;
9643;SDS011;4860;50.900;4.720;2023-05-14T07:32:09;0.10;;;0.10;;
9643;SDS011;4860;50.900;4.720;2023-05-14T07:34:35;0.03;;;0.03;;
9643;SDS011;4860;50.900;4.720;2023-05-14T07:37:01;0.10;;;0.10;;
9643;SDS011;4860;50.900;4.720;2023-05-14T07:39:27;0.10;;;0.10;;
9643;SDS011;4860;50.900;4.720;2023-05-14T07:41:53;0.10;;;0.10;;
9643;SDS011;4860;50.900;4.720;2023-05-14T07:44:20;0.10;;;0.10;;
9643;SDS011;4860;50.900;4.720;2023-05-14T07:46:46;0.10;;;0.10;;
9643;SDS011;4860;50.900;4.720;2023-05-14T07:49:12;0.10;;;0.10;;
9643;SDS011;4860;50.900;4.720;2023-05-14T07:51:38;0.10;;;0.10;;
9643;SDS011;4860;50.900;4.720;2023-05-14T07:54:04;0.10;;;0.10;;
9643;SDS011;4860;50.900;4.720;2023-05-14T07:56:31;0.10;;;0.10;;
9643;SDS011;4860;50.900;4.720;2023-05-14T07:58:57;0.10;;;0.10;;
9643;SDS011;4860;50.900;4.720;2023-05-14T08:01:23;0.10;;;0.10;;
9643;SDS011;4860;50.900;4.720;2023-05-14T08:03:49;0.10;;;0.10;;
9643;SDS011;4860;50.900;4.720;2023-05-14T08:06:15;0.10;;;0.10;;
9643;SDS011;4860;50.900;4.720;2023-05-14T08:08:41;0.10;;;0.10;;
9643;SDS011;4860;50.900;4.720;2023-05-14T08:11:07;0.10;;;0.10;;
9643;SDS011;4860;50.900;4.720;2023-05-14T08:13:34;0.00;;;0.00;;
9643;SDS011;4860;50.900;4.720;2023-05-14T08:16:00;0.00;;;0.00;;
9643;SDS011;4860;50.900;4.720;2023-05-14T08:18:26;0.00;;;0.00;;
9643;SDS011;4860;50.900;4.720;2023-05-14T08:20:52;0.10;;;0.10;;
9643;SDS011;4860;50.900;4.720;2023-05-14T08:23:18;0.10;;;0.10;;
9643;SDS011;4860;50.900;4.720;2023-05-14T08:25:44;0.10;;;0.10;;
9643;SDS011;4860;50.900;4.720;2023-05-14T08:28:10;0.00;;;0.00;;
9643;SDS011;4860;50.900;4.720;2023-05-14T08:30:37;0.10;;;0.10;;
9643;SDS011;4860;50.900;4.720;2023-05-14T08:33:03;0.10;;;0.10;;
9643;SDS011;4860;50.900;4.720;2023-05-14T08:35:29;0.10;;;0.10;;
9643;SDS011;4860;50.900;4.720;2023-05-14T08:37:55;0.10;;;0.10;;
9643;SDS011;4860;50.900;4.720;2023-05-14T08:40:21;0.00;;;0.00;;
9643;SDS011;4860;50.900;4.720;2023-05-14T08:42:48;0.10;;;0.10;;
9643;SDS011;4860;50.900;4.720;2023-05-14T08:45:19;0.00;;;0.00;;
9643;SDS011;4860;50.900;4.720;2023-05-14T08:47:46;0.00;;;0.00;;
9643;SDS011;4860;50.900;4.720;2023-05-14T08:50:13;0.10;;;0.10;;
9643;SDS011;4860;50.900;4.720;2023-05-14T08:52:40;0.05;;;0.05;;
9643;SDS011;4860;50.900;4.720;2023-05-14T08:55:06;0.10;;;0.10;;
9643;SDS011;4860;50.900;4.720;2023-05-14T08:57:33;0.00;;;0.00;;
9643;SDS011;4860;50.900;4.720;2023-05-14T09:00:00;0.10;;;0.10;;
9643;SDS011;4860;50.900;4.720;2023-05-14T09:02:30;0.10;;;0.10;;
9643;SDS011;4860;50.900;4.720;2023-05-14T09:04:57;0.10;;;0.10;;
9643;SDS011;4860;50.900;4.720;2023-05-14T09:07:23;0.10;;;0.10;;
9643;SDS011;4860;50.900;4.720;2023-05-14T09:09:50;0.00;;;0.00;;
9643;SDS011;4860;50.900;4.720;2023-05-14T09:12:16;0.00;;;0.00;;
9643;SDS011;4860;50.900;4.720;2023-05-14T09:14:43;0.10;;;0.10;;
9643;SDS011;4860;50.900;4.720;2023-05-14T09:17:09;0.10;;;0.10;;
9643;SDS011;4860;50.900;4.720;2023-05-14T09:19:40;0.10;;;0.10;;
9643;SDS011;4860;50.900;4.720;2023-05-14T09:22:13;0.00;;;0.00;;
9643;SDS011;4860;50.900;4.720;2023-05-14T09:24:40;0.10;;;0.10;;
9643;SDS011;4860;50.900;4.720;2023-05-14T09:27:06;0.10;;;0.10;;
9643;SDS011;4860;50.900;4.720;2023-05-14T09:29:33;0.10;;;0.10;;
9643;SDS011;4860;50.900;4.720;2023-05-14T09:31:59;0.10;;;0.10;;
9643;SDS011;4860;50.900;4.720;2023-05-14T09:34:33;0.10;;;0.10;;
9643;SDS011;4860;50.900;4.720;2023-05-14T09:37:03;0.00;;;0.00;;
9643;SDS011;4860;50.900;4.720;2023-05-14T09:39:29;0.10;;;0.10;;
9643;SDS011;4860;50.900;4.720;2023-05-14T09:41:56;0.10;;;0.10;;
9643;SDS011;4860;50.900;4.720;2023-05-14T09:44:22;0.10;;;0.10;;
9643;SDS011;4860;50.900;4.720;2023-05-14T09:46:49;0.00;;;0.00;;
9643;SDS011;4860;50.900;4.720;2023-05-14T09:49:15;0.00;;;0.00;;
9643;SDS011;4860;50.900;4.720;2023-05-14T09:51:42;0.10;;;0.10;;
9643;SDS011;4860;50.900;4.720;2023-05-14T09:54:08;0.00;;;0.00;;
9643;SDS011;4860;50.900;4.720;2023-05-14T09:56:34;0.10;;;0.10;;
9643;SDS011;4860;50.900;4.720;2023-05-14T09:59:01;0.00;;;0.00;;
9643;SDS011;4860;50.900;4.720;2023-05-14T10:01:28;0.00;;;0.00;;
9643;SDS011;4860;50.900;4.720;2023-05-14T10:03:55;0.10;;;0.10;;
9643;SDS011;4860;50.900;4.720;2023-05-14T10:06:22;0.10;;;0.10;;
9643;SDS011;4860;50.900;4.720;2023-05-14T10:08:49;0.10;;;0.10;;
9643;SDS011;4860;50.900;4.720;2023-05-14T10:11:18;0.10;;;0.10;;
9643;SDS011;4860;50.900;4.720;2023-05-14T10:13:48;0.00;;;0.00;;
9643;SDS011;4860;50.900;4.720;2023-05-14T10:16:20;0.00;;;0.00;;
9643;SDS011;4860;50.900;4.720;2023-05-14T10:18:51;0.00;;;0.00;;
9643;SDS011;4860;50.900;4.720;2023-05-14T10:21:19;0.00;;;0.00;;
9643;SDS011;4860;50.900;4.720;2023-05-14T10:23:46;0.00;;;0.00;;
9643;SDS011;4860;50.900;4.720;2023-05-14T10:26:13;0.00;;;0.00;;
9643;SDS011;4860;50.900;4.720;2023-05-14T10:28:42;0.00;;;0.00;;
9643;SDS011;4860;50.900;4.720;2023-05-14T10:31:09;0.10;;;0.10;;
9643;SDS011;4860;50.900;4.720;2023-05-14T10:33:48;0.00;;;0.00;;
9643;SDS011;4860;50.900;4.720;2023-05-14T10:36:15;0.10;;;0.10;;
9643;SDS011;4860;50.900;4.720;2023-05-14T10:38:41;0.00;;;0.00;;
9643;SDS011;4860;50.900;4.720;2023-05-14T10:41:11;0.00;;;0.00;;
9643;SDS011;4860;50.900;4.720;2023-05-14T10:43:40;0.10;;;0.10;;
9643;SDS011;4860;50.900;4.720;2023-05-14T10:46:07;0.00;;;0.00;;
9643;SDS011;4860;50.900;4.720;2023-05-14T10:48:34;0.00;;;0.00;;
9643;SDS011;4860;50.900;4.720;2023-05-14T10:51:01;0.00;;;0.00;;
9643;SDS011;4860;50.900;4.720;2023-05-14T10:53:37;0.00;;;0.00;;
9643;SDS011;4860;50.900;4.720;2023-05-14T10:56:07;0.10;;;0.10;;
9643;SDS011;4860;50.900;4.720;2023-05-14T10:58:35;0.00;;;0.00;;
9643;SDS011;4860;50.900;4.720;2023-05-14T11:01:01;0.00;;;0.00;;
9643;SDS011;4860;50.900;4.720;2023-05-14T11:03:29;0.00;;;0.00;;
9643;SDS011;4860;50.900;4.720;2023-05-14T11:05:58;0.00;;;0.00;;
9643;SDS011;4860;50.900;4.720;2023-05-14T11:08:27;0.00;;;0.00;;
9643;SDS011;4860;50.900;4.720;2023-05-14T11:10:53;0.05;;;0.05;;
9643;SDS011;4860;50.900;4.720;2023-05-14T11:13:20;0.05;;;0.05;;
9643;SDS011;4860;50.900;4.720;2023-05-14T11:15:46;0.00;;;0.00;;
9643;SDS011;4860;50.900;4.720;2023-05-14T11:18:24;0.00;;;0.00;;
9643;SDS011;4860;50.900;4.720;2023-05-14T11:20:51;0.00;;;0.00;;
9643;SDS011;4860;50.900;4.720;2023-05-14T11:23:17;0.00;;;0.00;;
9643;SDS011;4860;50.900;4.720;2023-05-14T11:25:44;0.10;;;0.10;;
9643;SDS011;4860;50.900;4.720;2023-05-14T11:28:10;0.00;;;0.00;;
9643;SDS011;4860;50.900;4.720;2023-05-14T11:30:36;0.00;;;0.00;;
9643;SDS011;4860;50.900;4.720;2023-05-14T11:33:02;0.10;;;0.10;;
9643;SDS011;4860;50.900;4.720;2023-05-14T11:35:29;0.00;;;0.00;;
9643;SDS011;4860;50.900;4.720;2023-05-14T11:37:55;0.10;;;0.10;;
9643;SDS011;4860;50.900;4.720;2023-05-14T11:40:21;0.00;;;0.00;;
9643;SDS011;4860;50.900;4.720;2023-05-14T11:42:49;0.00;;;0.00;;
9643;SDS011;4860;50.900;4.720;2023-05-14T11:45:23;0.10;;;0.10;;
9643;SDS011;4860;50.900;4.720;2023-05-14T11:47:57;0.00;;;0.00;;
9643;SDS011;4860;50.900;4.720;2023-05-14T11:50:23;0.10;;;0.10;;
9643;SDS011;4860;50.900;4.720;2023-05-14T11:52:49;0.00;;;0.00;;
9643;SDS011;4860;50.900;4.720;2023-05-14T11:55:15;0.00;;;0.00;;
9643;SDS011;4860;50.900;4.720;2023-05-14T11:57:42;0.00;;;0.00;;
9643;SDS011;4860;50.900;4.720;2023-05-14T12:00:08;0.00;;;0.00;;
9643;SDS011;4860;50.900;4.720;2023-05-14T12:02:40;0.00;;;0.00;;
9643;SDS011;4860;50.900;4.720;2023-05-14T12:05:07;0.00;;;0.00;;
9643;SDS011;4860;50.900;4.720;2023-05-14T12:07:35;0.00;;;0.00;;
9643;SDS011;4860;50.900;4.720;2023-05-14T12:10:02;0.00;;;0.00;;
9643;SDS011;4860;50.900;4.720;2023-05-14T12:12:32;0.00;;;0.00;;
9643;SDS011;4860;50.900;4.720;2023-05-14T12:14:59;0.00;;;0.00;;
9643;SDS011;4860;50.900;4.720;2023-05-14T12:17:25;0.00;;;0.00;;
9643;SDS011;4860;50.900;4.720;2023-05-14T12:19:52;0.00;;;0.00;;
9643;SDS011;4860;50.900;4.720;2023-05-14T12:22:19;0.00;;;0.00;;
9643;SDS011;4860;50.900;4.720;2023-05-14T12:24:53;0.00;;;0.00;;
9643;SDS011;4860;50.900;4.720;2023-05-14T12:27:22;0.00;;;0.00;;
9643;SDS011;4860;50.900;4.720;2023-05-14T12:29:49;0.00;;;0.00;;
9643;SDS011;4860;50.900;4.720;2023-05-14T12:32:17;0.00;;;0.00;;
9643;SDS011;4860;50.900;4.720;2023-05-14T12:34:44;0.08;;;0.08;;
9643;SDS011;4860;50.900;4.720;2023-05-14T12:37:10;0.00;;;0.00;;
9643;SDS011;4860;50.900;4.720;2023-05-14T12:39:36;0.00;;;0.00;;
9643;SDS011;4860;50.900;4.720;2023-05-14T12:42:02;0.10;;;0.10;;
9643;SDS011;4860;50.900;4.720;2023-05-14T12:44:28;0.00;;;0.00;;
9643;SDS011;4860;50.900;4.720;2023-05-14T12:46:55;0.00;;;0.00;;
9643;SDS011;4860;50.900;4.720;2023-05-14T12:49:21;0.00;;;0.00;;
9643;SDS011;4860;50.900;4.720;2023-05-14T12:51:47;0.00;;;0.00;;
9643;SDS011;4860;50.900;4.720;2023-05-14T12:54:14;0.00;;;0.00;;
9643;SDS011;4860;50.900;4.720;2023-05-14T12:56:40;0.00;;;0.00;;
9643;SDS011;4860;50.900;4.720;2023-05-14T12:59:06;0.00;;;0.00;;
9643;SDS011;4860;50.900;4.720;2023-05-14T13:01:33;0.00;;;0.00;;
9643;SDS011;4860;50.900;4.720;2023-05-14T13:03:59;0.00;;;0.00;;
9643;SDS011;4860;50.900;4.720;2023-05-14T13:06:26;0.00;;;0.00;;
9643;SDS011;4860;50.900;4.720;2023-05-14T13:08:52;0.00;;;0.00;;
9643;SDS011;4860;50.900;4.720;2023-05-14T13:11:18;0.00;;;0.00;;
9643;SDS011;4860;50.900;4.720;2023-05-14T13:13:45;0.00;;;0.00;;
9643;SDS011;4860;50.900;4.720;2023-05-14T13:16:11;0.00;;;0.00;;
9643;SDS011;4860;50.900;4.720;2023-05-14T13:18:41;0.00;;;0.00;;
9643;SDS011;4860;50.900;4.720;2023-05-14T13:21:07;0.00;;;0.00;;
9643;SDS011;4860;50.900;4.720;2023-05-14T13:23:33;0.00;;;0.00;;
9643;SDS011;4860;50.900;4.720;2023-05-14T13:25:59;0.00;;;0.00;;
9643;SDS011;4860;50.900;4.720;2023-05-14T13:28:25;0.00;;;0.00;;
9643;SDS011;4860;50.900;4.720;2023-05-14T13:31:02;0.00;;;0.00;;
9643;SDS011;4860;50.900;4.720;2023-05-14T13:33:28;0.00;;;0.00;;
9643;SDS011;4860;50.900;4.720;2023-05-14T13:35:54;0.00;;;0.00;;
9643;SDS011;4860;50.900;4.720;2023-05-14T13:38:20;0.00;;;0.00;;
9643;SDS011;4860;50.900;4.720;2023-05-14T13:40:47;0.00;;;0.00;;
9643;SDS011;4860;50.900;4.720;2023-05-14T13:43:13;0.00;;;0.00;;
9643;SDS011;4860;50.900;4.720;2023-05-14T13:45:40;0.00;;;0.00;;
9643;SDS011;4860;50.900;4.720;2023-05-14T13:48:07;0.00;;;0.00;;
9643;SDS011;4860;50.900;4.720;2023-05-14T13:50:33;0.00;;;0.00;;
9643;SDS011;4860;50.900;4.720;2023-05-14T13:52:59;0.00;;;0.00;;
9643;SDS011;4860;50.900;4.720;2023-05-14T13:55:25;0.00;;;0.00;;
9643;SDS011;4860;50.900;4.720;2023-05-14T13:57:51;0.00;;;0.00;;
9643;SDS011;4860;50.900;4.720;2023-05-14T14:00:17;0.00;;;0.00;;
9643;SDS011;4860;50.900;4.720;2023-05-14T14:02:43;0.00;;;0.00;;
9643;SDS011;4860;50.900;4.720;2023-05-14T14:05:10;0.00;;;0.00;;
9643;SDS011;4860;50.900;4.720;2023-05-14T14:07:36;0.00;;;0.00;;
9643;SDS011;4860;50.900;4.720;2023-05-14T14:10:03;0.00;;;0.00;;
9643;SDS011;4860;50.900;4.720;2023-05-14T14:12:30;0.00;;;0.00;;
9643;SDS011;4860;50.900;4.720;2023-05-14T14:14:56;0.00;;;0.00;;
9643;SDS011;4860;50.900;4.720;2023-05-14T14:17:22;0.00;;;0.00;;
9643;SDS011;4860;50.900;4.720;2023-05-14T14:19:48;0.00;;;0.00;;
9643;SDS011;4860;50.900;4.720;2023-05-14T14:22:14;0.00;;;0.00;;
9643;SDS011;4860;50.900;4.720;2023-05-14T14:24:41;0.00;;;0.00;;
9643;SDS011;4860;50.900;4.720;2023-05-14T14:27:07;0.00;;;0.00;;
9643;SDS011;4860;50.900;4.720;2023-05-14T14:29:34;0.00;;;0.00;;
9643;SDS011;4860;50.900;4.720;2023-05-14T14:32:01;0.00;;;0.00;;
9643;SDS011;4860;50.900;4.720;2023-05-14T14:34:27;0.00;;;0.00;;
9643;SDS011;4860;50.900;4.720;2023-05-14T14:36:53;0.00;;;0.00;;
9643;SDS011;4860;50.900;4.720;2023-05-14T14:39:19;0.00;;;0.00;;
9643;SDS011;4860;50.900;4.720;2023-05-14T14:41:45;0.00;;;0.00;;
9643;SDS011;4860;50.900;4.720;2023-05-14T14:44:12;0.00;;;0.00;;
9643;SDS011;4860;50.900;4.720;2023-05-14T14:46:38;0.00;;;0.00;;
9643;SDS011;4860;50.900;4.720;2023-05-14T14:49:07;0.00;;;0.00;;
9643;SDS011;4860;50.900;4.720;2023-05-14T14:51:33;0.00;;;0.00;;
9643;SDS011;4860;50.900;4.720;2023-05-14T14:53:59;0.00;;;0.00;;
9643;SDS011;4860;50.900;4.720;2023-05-14T14:56:25;0.00;;;0.00;;
9643;SDS011;4860;50.900;4.720;2023-05-14T14:58:52;0.00;;;0.00;;
9643;SDS011;4860;50.900;4.720;2023-05-14T15:01:18;0.00;;;0.00;;
9643;SDS011;4860;50.900;4.720;2023-05-14T15:03:45;0.00;;;0.00;;
9643;SDS011;4860;50.900;4.720;2023-05-14T15:06:12;0.00;;;0.00;;
9643;SDS011;4860;50.900;4.720;2023-05-14T15:08:38;0.00;;;0.00;;
9643;SDS011;4860;50.900;4.720;2023-05-14T15:11:06;0.00;;;0.00;;
9643;SDS011;4860;50.900;4.720;2023-05-14T15:13:32;0.00;;;0.00;;
9643;SDS011;4860;50.900;4.720;2023-05-14T15:15:58;0.00;;;0.00;;
9643;SDS011;4860;50.900;4.720;2023-05-14T15:18:25;0.00;;;0.00;;
9643;SDS011;4860;50.900;4.720;2023-05-14T15:20:51;0.00;;;0.00;;